createdAt,value
2022-10-14T00:00:08.115Z,22.33
2022-10-14T00:02:35.926Z,26.00
2022-10-14T00:05:03.696Z,24.53
2022-10-14T00:07:31.453Z,24.90
2022-10-14T00:09:59.170Z,22.67
2022-10-14T00:12:26.907Z,22.90
2022-10-14T00:14:56.352Z,24.73
2022-10-14T00:17:24.255Z,23.90
2022-10-14T00:19:52.044Z,27.93
2022-10-14T00:22:19.824Z,32.53
2022-10-14T00:24:47.594Z,35.93
2022-10-14T00:27:15.351Z,37.77
2022-10-14T00:29:43.208Z,33.47
2022-10-14T00:32:12.335Z,37.90
2022-10-14T00:34:40.081Z,37.60
2022-10-14T00:37:07.859Z,33.97
2022-10-14T00:42:13.973Z,39.53
2022-10-14T00:45:02.549Z,38.40
2022-10-14T00:47:32.183Z,35.77
2022-10-14T00:50:01.054Z,39.17
2022-10-14T00:52:29.637Z,40.43
2022-10-14T00:55:01.388Z,39.67
2022-10-14T00:57:30.351Z,41.83
2022-10-14T01:00:02.737Z,36.37
2022-10-14T01:02:32.122Z,41.00
2022-10-14T01:05:01.051Z,36.57
2022-10-14T01:07:38.072Z,36.77
2022-10-14T01:10:11.848Z,34.77
2022-10-14T01:12:55.851Z,36.80
2022-10-14T01:15:31.219Z,38.23
2022-10-14T01:18:12.318Z,34.40
2022-10-14T01:21:08.072Z,36.97
2022-10-14T01:24:05.106Z,39.20
2022-10-14T01:27:14.786Z,35.67
2022-10-14T01:30:02.137Z,34.97
2022-10-14T01:32:31.938Z,33.70
2022-10-14T01:35:05.884Z,34.67
2022-10-14T01:37:37.923Z,34.73
2022-10-14T01:40:12.676Z,35.77
2022-10-14T01:42:42.407Z,34.30
2022-10-14T01:45:17.285Z,41.03
2022-10-14T01:47:45.721Z,36.07
2022-10-14T01:50:17.919Z,38.07
2022-10-14T01:52:50.688Z,40.67
2022-10-14T01:55:22.280Z,37.80
2022-10-14T01:57:53.292Z,41.97
2022-10-14T02:00:22.794Z,42.27
2022-10-14T02:02:50.599Z,41.97
2022-10-14T02:05:22.032Z,41.23
2022-10-14T02:07:54.203Z,40.10
2022-10-14T02:10:32.516Z,44.33
2022-10-14T02:13:12.572Z,41.67
2022-10-14T02:15:56.085Z,45.93
2022-10-14T02:18:31.755Z,43.10
2022-10-14T02:21:03.961Z,40.50
2022-10-14T02:23:36.707Z,41.47
2022-10-14T02:26:05.075Z,42.20
2022-10-14T02:28:34.784Z,47.30
2022-10-14T02:31:07.912Z,47.20
2022-10-14T02:33:40.992Z,50.00
2022-10-14T02:36:11.133Z,49.27
2022-10-14T02:38:40.150Z,52.83
2022-10-14T02:41:13.725Z,48.70
2022-10-14T02:43:41.540Z,47.77
2022-10-14T02:46:10.652Z,50.50
2022-10-14T02:48:38.681Z,45.10
2022-10-14T02:51:06.730Z,47.50
2022-10-14T02:53:34.479Z,47.27
2022-10-14T02:56:02.463Z,51.57
2022-10-14T02:58:30.245Z,52.50
2022-10-14T03:00:58.031Z,54.93
2022-10-14T03:03:27.215Z,53.43
2022-10-14T03:05:54.969Z,48.43
2022-10-14T03:08:22.727Z,52.93
2022-10-14T03:10:50.517Z,52.43
2022-10-14T03:13:18.298Z,53.00
2022-10-14T03:15:48.739Z,53.90
2022-10-14T03:18:16.470Z,50.67
2022-10-14T03:20:46.452Z,54.53
2022-10-14T03:23:14.687Z,56.87
2022-10-14T03:25:44.977Z,53.90
2022-10-14T03:28:12.988Z,51.93
2022-10-14T03:30:41.244Z,52.63
2022-10-14T03:33:12.121Z,52.10
2022-10-14T03:35:42.631Z,57.60
2022-10-14T03:38:12.266Z,56.63
2022-10-14T03:40:40.060Z,52.97
2022-10-14T03:43:07.815Z,56.37
2022-10-14T03:45:35.593Z,59.40
2022-10-14T03:48:03.386Z,57.27
2022-10-14T03:50:31.654Z,57.50
2022-10-14T03:52:59.392Z,59.17
2022-10-14T03:55:29.822Z,63.17
2022-10-14T03:57:57.616Z,67.30
2022-10-14T04:00:25.377Z,64.80
2022-10-14T04:02:53.230Z,63.57
2022-10-14T04:05:21.004Z,68.47
2022-10-14T04:07:48.812Z,67.60
2022-10-14T04:10:16.631Z,67.70
2022-10-14T04:12:45.731Z,72.27
2022-10-14T04:15:13.475Z,77.90
2022-10-14T04:17:41.223Z,70.23
2022-10-14T04:20:09.679Z,63.37
2022-10-14T04:22:37.535Z,61.80
2022-10-14T04:25:05.835Z,61.40
2022-10-14T04:27:33.697Z,61.50
2022-10-14T04:30:02.859Z,58.80
2022-10-14T04:32:30.637Z,59.07
2022-10-14T04:34:58.523Z,55.67
2022-10-14T04:37:26.294Z,56.30
2022-10-14T04:39:54.064Z,53.07
2022-10-14T04:42:22.127Z,59.00
2022-10-14T04:44:50.585Z,56.77
2022-10-14T04:47:19.689Z,57.67
2022-10-14T04:49:47.478Z,56.20
2022-10-14T04:52:15.319Z,55.17
2022-10-14T04:54:43.099Z,55.27
2022-10-14T04:57:10.889Z,48.50
2022-10-14T04:59:38.691Z,48.80
2022-10-14T05:02:06.500Z,45.13
2022-10-14T05:04:35.608Z,48.53
2022-10-14T05:07:03.369Z,48.03
2022-10-14T05:09:31.260Z,44.80
2022-10-14T05:11:59.060Z,44.00
2022-10-14T05:14:26.871Z,43.10
2022-10-14T05:16:54.692Z,39.13
2022-10-14T05:19:22.450Z,36.47
2022-10-14T05:21:51.739Z,39.57
2022-10-14T05:24:19.802Z,38.10
2022-10-14T05:26:47.511Z,33.13
2022-10-14T05:29:15.486Z,33.97
2022-10-14T05:31:43.328Z,32.57
2022-10-14T05:34:11.984Z,33.03
2022-10-14T05:36:39.772Z,29.63
2022-10-14T05:39:11.020Z,31.57
2022-10-14T05:41:38.833Z,29.37
2022-10-14T05:44:06.784Z,27.50
2022-10-14T05:46:34.573Z,23.40
2022-10-14T05:49:06.034Z,26.33
2022-10-14T05:51:34.391Z,27.53
2022-10-14T05:54:02.583Z,25.50
2022-10-14T05:56:31.687Z,22.23
2022-10-14T05:58:59.482Z,24.03
2022-10-14T06:01:27.274Z,25.17
2022-10-14T06:03:55.103Z,26.37
2022-10-14T06:06:28.065Z,25.63
2022-10-14T06:08:56.970Z,25.97
2022-10-14T06:11:24.823Z,24.37
2022-10-14T06:13:54.682Z,25.47
2022-10-14T06:16:22.520Z,24.83
2022-10-14T06:18:54.300Z,25.07
2022-10-14T06:21:22.417Z,26.97
2022-10-14T06:23:51.777Z,24.93
2022-10-14T06:26:19.655Z,29.60
2022-10-14T06:28:47.488Z,28.13
2022-10-14T06:31:16.688Z,35.10
2022-10-14T06:33:44.973Z,38.10
2022-10-14T06:36:12.985Z,38.13
2022-10-14T06:38:40.733Z,46.93
2022-10-14T06:41:08.512Z,47.93
2022-10-14T06:43:36.244Z,51.87
2022-10-14T06:46:04.686Z,56.73
2022-10-14T06:48:33.780Z,54.60
2022-10-14T06:51:02.848Z,61.77
2022-10-14T06:53:30.886Z,61.70
2022-10-14T06:56:00.476Z,64.37
2022-10-14T06:58:28.767Z,64.37
2022-10-14T07:03:29.351Z,63.23
2022-10-14T07:05:58.564Z,61.33
2022-10-14T07:08:26.313Z,65.30
2022-10-14T07:10:54.120Z,62.00
2022-10-14T07:13:21.911Z,58.80
2022-10-14T07:15:50.116Z,54.97
2022-10-14T07:18:17.849Z,57.07
2022-10-14T07:20:45.983Z,59.80
2022-10-14T07:23:15.424Z,56.80
2022-10-14T07:25:43.155Z,56.23
2022-10-14T07:28:11.304Z,56.63
2022-10-14T07:30:39.314Z,52.63
2022-10-14T07:33:07.341Z,58.27
2022-10-14T07:35:35.475Z,58.07
2022-10-14T07:38:03.260Z,57.27
2022-10-14T07:40:32.399Z,58.50
2022-10-14T07:43:00.147Z,57.13
2022-10-14T07:45:27.916Z,59.00
2022-10-14T07:47:55.640Z,53.50
2022-10-14T07:50:23.416Z,51.03
2022-10-14T07:52:51.235Z,50.17
2022-10-14T07:55:19.037Z,51.30
2022-10-14T07:57:48.111Z,56.43
2022-10-14T08:00:16.055Z,54.63
2022-10-14T08:02:43.808Z,51.23
2022-10-14T08:07:59.256Z,49.50
2022-10-14T08:10:26.988Z,45.00
2022-10-14T08:12:57.721Z,43.67
2022-10-14T08:15:28.462Z,37.30
2022-10-14T08:17:56.235Z,44.90
2022-10-14T08:20:24.037Z,39.97
2022-10-14T08:22:51.768Z,40.37
2022-10-14T08:25:19.527Z,34.33
2022-10-14T08:27:50.413Z,32.13
2022-10-14T08:30:19.529Z,29.27
2022-10-14T08:32:47.707Z,30.20
2022-10-14T08:35:15.671Z,28.77
2022-10-14T08:37:43.464Z,23.90
2022-10-14T08:40:16.591Z,26.63
2022-10-14T08:42:50.964Z,26.07
2022-10-14T08:45:25.374Z,21.30
2022-10-14T08:47:57.040Z,22.37
2022-10-14T08:50:29.162Z,20.50
2022-10-14T08:53:03.417Z,21.00
2022-10-14T08:55:36.566Z,17.93
2022-10-14T08:58:12.078Z,20.17
2022-10-14T09:00:43.240Z,19.30
2022-10-14T09:03:21.907Z,20.43
2022-10-14T09:05:57.048Z,22.50
2022-10-14T09:08:30.843Z,18.37
2022-10-14T09:10:59.444Z,19.43
2022-10-14T09:13:31.872Z,21.33
2022-10-14T09:16:07.312Z,18.73
2022-10-14T09:18:39.105Z,21.07
2022-10-14T09:21:40.702Z,19.50
2022-10-14T09:24:16.563Z,24.03
2022-10-14T09:26:46.660Z,19.20
2022-10-14T09:29:23.755Z,18.70
2022-10-14T09:31:54.066Z,19.77
2022-10-14T09:34:29.599Z,19.47
2022-10-14T09:37:01.944Z,17.00
2022-10-14T09:39:30.855Z,18.97
2022-10-14T09:41:59.988Z,18.30
2022-10-14T09:44:27.716Z,20.30
2022-10-14T09:46:59.358Z,18.20
2022-10-14T09:49:36.619Z,18.17
2022-10-14T09:52:04.672Z,18.03
2022-10-14T09:54:34.301Z,18.70
2022-10-14T09:57:07.223Z,17.73
2022-10-14T09:59:39.704Z,18.23
2022-10-14T10:02:23.963Z,18.63
2022-10-14T10:04:52.300Z,19.37
2022-10-14T10:07:30.467Z,21.27
2022-10-14T10:09:59.495Z,19.17
2022-10-14T10:12:31.889Z,19.13
2022-10-14T10:15:03.542Z,18.67
2022-10-14T10:17:35.492Z,15.93
2022-10-14T10:20:20.331Z,17.87
2022-10-14T10:22:48.885Z,20.20
2022-10-14T10:25:26.220Z,16.20
2022-10-14T10:27:55.809Z,17.70
2022-10-14T10:30:27.246Z,16.70
2022-10-14T10:33:16.774Z,18.53
2022-10-14T10:36:07.564Z,16.20
2022-10-14T10:38:45.399Z,17.97
2022-10-14T10:41:26.759Z,16.57
2022-10-14T10:44:12.983Z,16.70
2022-10-14T10:47:00.835Z,19.23
2022-10-14T10:49:50.327Z,21.57
2022-10-14T10:52:28.734Z,20.70
2022-10-14T10:55:04.934Z,23.97
2022-10-14T10:57:46.650Z,25.03
2022-10-14T11:00:20.857Z,21.93
2022-10-14T11:03:01.488Z,23.47
2022-10-14T11:05:49.070Z,18.70
2022-10-14T11:08:53.672Z,24.43
2022-10-14T11:11:44.506Z,22.17
2022-10-14T11:14:22.966Z,24.80
2022-10-14T11:17:01.386Z,24.37
2022-10-14T11:19:37.624Z,23.43
2022-10-14T11:22:14.971Z,23.73
2022-10-14T11:24:58.557Z,20.80
2022-10-14T11:27:36.807Z,21.30
2022-10-14T11:30:15.141Z,19.50
2022-10-14T11:32:56.848Z,22.07
2022-10-14T11:38:22.650Z,16.10
2022-10-14T11:41:00.433Z,14.30
2022-10-14T11:43:35.128Z,11.87
2022-10-14T11:46:07.023Z,7.30
2022-10-14T11:48:39.116Z,9.00
2022-10-14T11:51:12.099Z,5.67
2022-10-14T11:53:53.281Z,6.07
2022-10-14T11:56:35.220Z,8.27
2022-10-14T11:59:17.519Z,8.80
2022-10-14T12:01:46.127Z,11.07
2022-10-14T12:04:22.466Z,9.57
2022-10-14T12:06:58.206Z,7.33
2022-10-14T12:09:33.861Z,6.70
2022-10-14T12:12:06.838Z,3.83
2022-10-14T12:14:37.555Z,4.47
2022-10-14T12:17:08.333Z,2.03
2022-10-14T12:19:37.551Z,2.63
2022-10-14T12:22:16.396Z,3.57
2022-10-14T12:24:51.763Z,3.23
2022-10-14T12:27:20.860Z,4.90
2022-10-14T12:29:50.752Z,3.17
2022-10-14T12:32:24.222Z,3.40
2022-10-14T12:34:54.681Z,3.73
2022-10-14T12:37:50.032Z,4.23
2022-10-14T12:40:26.233Z,3.93
2022-10-14T12:43:04.565Z,3.63
2022-10-14T12:45:35.026Z,3.53
2022-10-14T12:48:15.208Z,4.47
2022-10-14T12:50:46.171Z,3.87
2022-10-14T12:53:23.444Z,2.90
2022-10-14T12:55:55.153Z,4.30
2022-10-14T12:58:32.196Z,4.43
2022-10-14T13:01:04.124Z,4.73
2022-10-14T13:03:37.580Z,4.67
2022-10-14T13:06:40.692Z,3.60
2022-10-14T13:09:41.627Z,7.17
2022-10-14T13:12:41.943Z,3.67
2022-10-14T13:15:48.985Z,3.77
2022-10-14T13:18:51.582Z,3.27
2022-10-14T13:21:53.666Z,3.87
2022-10-14T13:24:32.417Z,2.67
2022-10-14T13:27:09.912Z,6.23
2022-10-14T13:30:01.558Z,3.90
2022-10-14T13:32:38.855Z,3.67
2022-10-14T13:35:19.494Z,2.63
2022-10-14T13:37:57.819Z,2.33
2022-10-14T13:40:30.061Z,2.57
2022-10-14T13:43:00.322Z,2.50
2022-10-14T13:45:37.077Z,2.13
2022-10-14T13:48:13.781Z,2.90
2022-10-14T13:50:42.912Z,3.10
2022-10-14T13:53:16.439Z,2.70
2022-10-14T13:55:48.029Z,4.07
2022-10-14T13:58:20.242Z,2.93
2022-10-14T14:01:00.951Z,2.67
2022-10-14T14:03:33.349Z,3.10
2022-10-14T14:06:04.265Z,2.13
2022-10-14T14:08:40.457Z,4.97
2022-10-14T14:11:18.510Z,2.93
2022-10-14T14:14:01.489Z,2.27
2022-10-14T14:16:34.094Z,3.63
2022-10-14T14:19:08.270Z,3.37
2022-10-14T14:21:36.927Z,2.40
2022-10-14T14:24:18.412Z,4.20
2022-10-14T14:26:46.501Z,3.57
2022-10-14T14:29:19.451Z,3.40
2022-10-14T14:34:38.626Z,2.33
2022-10-14T14:39:59.997Z,2.83
2022-10-14T14:42:29.877Z,3.57
2022-10-14T14:45:00.885Z,4.70
2022-10-14T14:47:30.824Z,4.73
2022-10-14T14:50:18.239Z,5.27
2022-10-14T14:52:49.750Z,3.13
2022-10-14T14:55:37.705Z,3.43
2022-10-14T14:58:14.424Z,3.67
2022-10-14T15:00:45.939Z,1.87
2022-10-14T15:03:15.131Z,3.83
2022-10-14T15:05:49.626Z,3.27
2022-10-14T15:08:22.632Z,2.50
2022-10-14T15:10:51.144Z,3.77
2022-10-14T15:13:28.707Z,2.10
2022-10-14T15:15:56.598Z,4.47
2022-10-14T15:18:27.954Z,3.63
2022-10-14T15:21:07.730Z,5.03
2022-10-14T15:23:40.245Z,5.50
2022-10-14T15:26:22.943Z,3.67
2022-10-14T15:29:04.703Z,2.83
2022-10-14T15:31:32.735Z,1.87
2022-10-14T15:34:02.539Z,5.27
2022-10-14T15:36:32.765Z,3.23
2022-10-14T15:39:02.379Z,4.13
2022-10-14T15:41:30.182Z,2.00
2022-10-14T15:43:58.006Z,4.27
2022-10-14T15:46:43.436Z,3.77
2022-10-14T15:49:21.230Z,3.20
2022-10-14T15:51:49.029Z,3.70
2022-10-14T15:54:17.656Z,4.60
2022-10-14T15:56:46.254Z,4.60
2022-10-14T15:59:15.995Z,2.87
2022-10-14T16:01:46.026Z,5.77
2022-10-14T16:04:21.644Z,2.90
2022-10-14T16:06:49.954Z,2.03
2022-10-14T16:09:17.807Z,3.50
2022-10-14T16:11:45.635Z,2.47
2022-10-14T16:14:13.661Z,1.97
2022-10-14T16:16:43.375Z,6.93
2022-10-14T16:19:11.123Z,3.67
2022-10-14T16:21:40.650Z,4.57
2022-10-14T16:24:12.783Z,4.00
2022-10-14T16:26:42.165Z,3.97
2022-10-14T16:29:10.424Z,4.23
2022-10-14T16:31:38.215Z,3.90
2022-10-14T16:34:05.974Z,4.30
2022-10-14T16:36:33.699Z,4.87
2022-10-14T16:39:02.826Z,5.07
2022-10-14T16:41:31.175Z,4.30
2022-10-14T16:43:59.004Z,6.73
2022-10-14T16:46:46.750Z,5.80
2022-10-14T16:49:15.055Z,5.67
2022-10-14T16:51:43.337Z,4.80
2022-10-14T16:54:13.360Z,4.57
2022-10-14T16:56:53.518Z,5.17
2022-10-14T16:59:21.888Z,5.40
2022-10-14T17:01:50.943Z,4.70
2022-10-14T17:04:20.451Z,7.30
2022-10-14T17:06:48.780Z,6.63
2022-10-14T17:09:18.965Z,5.90
2022-10-14T17:11:47.660Z,6.07
2022-10-14T17:14:18.957Z,7.83
2022-10-14T17:16:48.062Z,7.23
2022-10-14T17:19:15.859Z,6.10
2022-10-14T17:21:43.944Z,6.63
2022-10-14T17:24:11.691Z,8.10
2022-10-14T17:26:40.753Z,6.70
2022-10-14T17:29:08.517Z,10.03
2022-10-14T17:31:37.758Z,8.13
2022-10-14T17:34:05.916Z,8.00
2022-10-14T17:36:33.768Z,9.97
2022-10-14T17:39:01.535Z,9.87
2022-10-14T17:41:30.677Z,10.97
2022-10-14T17:44:01.351Z,10.57
2022-10-14T17:46:31.360Z,9.53
2022-10-14T17:49:00.597Z,10.80
2022-10-14T17:51:29.547Z,8.30
2022-10-14T17:53:59.234Z,10.27
2022-10-14T17:56:28.001Z,11.00
2022-10-14T17:58:56.890Z,9.20
2022-10-14T18:01:37.506Z,10.67
2022-10-14T18:04:15.051Z,12.63
2022-10-14T18:06:44.854Z,11.80
2022-10-14T18:09:12.789Z,12.03
2022-10-14T18:12:07.652Z,13.73
2022-10-14T18:14:31.292Z,15.33
2022-10-14T18:17:00.443Z,14.33
2022-10-14T18:19:28.572Z,15.97
2022-10-14T18:21:56.341Z,14.57
2022-10-14T18:24:24.291Z,16.17
2022-10-14T18:26:52.359Z,19.60
2022-10-14T18:29:20.283Z,13.90
2022-10-14T18:31:50.090Z,14.97
2022-10-14T18:34:19.383Z,16.43
2022-10-14T18:36:47.966Z,15.20
2022-10-14T18:39:15.800Z,13.33
2022-10-14T18:41:43.946Z,16.63
2022-10-14T18:44:12.186Z,13.97
2022-10-14T18:46:40.722Z,15.80
2022-10-14T18:49:11.259Z,13.50
2022-10-14T18:51:41.426Z,14.67
2022-10-14T18:54:12.113Z,14.73
2022-10-14T18:56:40.082Z,15.80
2022-10-14T18:59:09.817Z,15.60
2022-10-14T19:01:39.498Z,14.73
2022-10-14T19:04:09.396Z,15.77
2022-10-14T19:06:37.391Z,16.57
2022-10-14T19:09:09.252Z,16.87
2022-10-14T19:11:37.008Z,17.47
2022-10-14T19:14:05.712Z,19.00
2022-10-14T19:16:36.018Z,19.97
2022-10-14T19:19:08.104Z,19.20
2022-10-14T19:21:35.892Z,17.73
2022-10-14T19:24:06.957Z,18.17
2022-10-14T19:26:36.933Z,18.60
2022-10-14T19:29:10.463Z,21.13
2022-10-14T19:31:40.767Z,20.67
2022-10-14T19:34:11.555Z,21.87
2022-10-14T19:36:40.336Z,20.50
2022-10-14T19:39:12.612Z,23.87
2022-10-14T19:41:43.228Z,21.67
2022-10-14T19:44:12.177Z,22.73
2022-10-14T19:46:40.631Z,24.03
2022-10-14T19:49:08.472Z,23.23
2022-10-14T19:51:36.575Z,21.93
2022-10-14T19:54:04.644Z,24.37
2022-10-14T19:56:33.746Z,28.63
2022-10-14T19:59:01.760Z,24.07
2022-10-14T20:01:30.728Z,25.17
2022-10-14T20:04:00.585Z,22.57
2022-10-14T20:06:31.203Z,23.20
2022-10-14T20:08:59.203Z,22.67
2022-10-14T20:11:26.977Z,19.47
2022-10-14T20:13:56.111Z,22.47
2022-10-14T20:16:23.879Z,21.57
2022-10-14T20:18:51.982Z,19.57
2022-10-14T20:21:19.742Z,21.60
2022-10-14T20:23:47.502Z,20.23
2022-10-14T20:26:17.476Z,21.77
2022-10-14T20:28:45.343Z,19.07
2022-10-14T20:31:15.840Z,17.43
2022-10-14T20:33:44.380Z,14.47
2022-10-14T20:36:14.036Z,17.30
2022-10-14T20:38:42.696Z,16.83
2022-10-14T20:41:14.338Z,16.63
2022-10-14T20:43:43.033Z,15.23
2022-10-14T20:46:11.456Z,15.23
2022-10-14T20:48:40.563Z,19.10
2022-10-14T20:51:09.740Z,14.27
2022-10-14T20:53:37.661Z,18.20
2022-10-14T20:56:08.728Z,16.60
2022-10-14T20:58:36.803Z,18.03
2022-10-14T21:01:06.873Z,15.70
2022-10-14T21:03:34.734Z,13.07
2022-10-14T21:06:05.301Z,14.53
2022-10-14T21:08:33.132Z,14.87
2022-10-14T21:11:01.740Z,11.70
2022-10-14T21:13:29.765Z,17.83
2022-10-14T21:15:57.959Z,13.70
2022-10-14T21:18:26.114Z,15.57
2022-10-14T21:20:54.134Z,16.00
2022-10-14T21:23:23.322Z,15.70
2022-10-14T21:25:56.444Z,14.57
2022-10-14T21:28:24.270Z,16.40
2022-10-14T21:30:52.095Z,18.23
2022-10-14T21:33:19.856Z,18.90
2022-10-14T21:35:47.580Z,18.33
2022-10-14T21:38:15.320Z,18.87
2022-10-14T21:40:44.526Z,20.67
2022-10-14T21:43:12.256Z,17.80
2022-10-14T21:45:40.020Z,18.37
2022-10-14T21:48:07.756Z,20.23
2022-10-14T21:50:35.518Z,21.43
2022-10-14T21:53:03.275Z,18.87
2022-10-14T21:55:31.043Z,19.10
2022-10-14T21:58:00.178Z,21.57
2022-10-14T22:00:27.977Z,19.13
2022-10-14T22:02:56.175Z,20.37
2022-10-14T22:05:23.953Z,20.30
2022-10-14T22:07:51.707Z,19.87
2022-10-14T22:10:36.852Z,21.33
2022-10-14T22:13:06.159Z,23.07
2022-10-14T22:15:33.955Z,22.97
2022-10-14T22:18:01.847Z,24.67
2022-10-14T22:20:29.667Z,23.53
2022-10-14T22:22:59.203Z,21.87
2022-10-14T22:25:26.983Z,20.77
2022-10-14T22:27:54.739Z,22.60
2022-10-14T22:30:23.800Z,24.00
2022-10-14T22:32:51.530Z,23.27
2022-10-14T22:35:19.836Z,22.83
2022-10-14T22:37:47.632Z,23.23
2022-10-14T22:40:15.651Z,23.60
2022-10-14T22:42:44.785Z,24.27
2022-10-14T22:45:14.487Z,25.07
2022-10-14T22:47:43.593Z,23.50
2022-10-14T22:50:11.531Z,24.47
2022-10-14T22:52:40.043Z,26.13
2022-10-14T22:55:09.504Z,24.90
2022-10-14T22:57:37.252Z,24.77
2022-10-14T23:00:06.655Z,24.17
2022-10-14T23:02:34.438Z,23.63
2022-10-14T23:05:03.635Z,26.00
2022-10-14T23:07:31.641Z,26.80
2022-10-14T23:09:59.362Z,23.83
2022-10-14T23:12:27.323Z,24.90
2022-10-14T23:14:55.026Z,26.53
2022-10-14T23:17:22.806Z,27.37
2022-10-14T23:19:50.577Z,24.13
2022-10-14T23:22:19.658Z,26.60
2022-10-14T23:24:47.426Z,26.33
2022-10-14T23:27:15.142Z,23.07
2022-10-14T23:29:42.916Z,26.47
2022-10-14T23:32:11.125Z,24.50
2022-10-14T23:34:38.941Z,24.27
2022-10-14T23:37:06.741Z,26.20
2022-10-14T23:39:35.820Z,28.03
2022-10-14T23:42:03.572Z,25.03
2022-10-14T23:44:33.987Z,26.83
2022-10-14T23:47:01.775Z,25.30
2022-10-14T23:49:29.559Z,26.87
2022-10-14T23:51:57.322Z,23.77
2022-10-14T23:54:25.146Z,24.63
2022-10-14T23:56:54.293Z,25.17
2022-10-14T23:59:22.203Z,27.67
